Time;durP1;ratioP1;P1;durP2;ratioP2;P2;SDS_P1;SDS_P2;PMS_P1;PMS_P2;Temp;Humidity;BMP_temperature;BMP_pressure;BME280_temperature;BME280_humidity;BME280_pressure;Samples;Min_cycle;Max_cycle;Signal;HPM_P1;HPM_P2
2022/05/06 00:00:12;;;;;;;6.32;3.45;;;10.70;99.90;;;;;;5033238;28;20034;-72
2022/05/06 00:02:39;;;;;;;14.60;4.07;;;10.60;99.90;;;;;;5032908;28;20030;-72
2022/05/06 00:05:06;;;;;;;5.95;3.22;;;10.60;99.90;;;;;;5033011;28;20048;-73
2022/05/06 00:07:32;;;;;;;12.98;4.00;;;10.60;99.90;;;;;;5033135;28;20048;-70
2022/05/06 00:09:57;;;;;;;13.38;3.95;;;10.60;99.90;;;;;;5033031;28;21046;-70
2022/05/06 00:12:23;;;;;;;5.97;3.47;;;10.40;99.90;;;;;;5032969;28;20497;-71
2022/05/06 00:14:49;;;;;;;5.68;3.47;;;10.50;99.90;;;;;;5032399;28;20029;-71
2022/05/06 00:17:15;;;;;;;8.48;4.45;;;10.50;99.90;;;;;;5032636;28;20022;-72
2022/05/06 00:19:45;;;;;;;5.75;3.33;;;10.50;99.90;;;;;;5032937;28;20025;-71
2022/05/06 00:22:11;;;;;;;10.20;4.35;;;10.40;99.90;;;;;;5033280;28;20026;-72
2022/05/06 00:24:38;;;;;;;7.47;3.92;;;10.40;99.90;;;;;;5031416;28;20111;-70
2022/05/06 00:27:04;;;;;;;5.97;3.08;;;10.40;99.90;;;;;;5032493;28;20093;-71
2022/05/06 00:29:30;;;;;;;16.15;3.58;;;10.30;99.90;;;;;;5032639;28;20026;-72
2022/05/06 00:31:56;;;;;;;8.25;3.17;;;10.30;99.90;;;;;;5031954;28;20359;-71
2022/05/06 00:34:22;;;;;;;7.00;3.80;;;10.30;99.90;;;;;;5032979;28;20029;-71
2022/05/06 00:36:48;;;;;;;5.07;2.75;;;10.40;99.90;;;;;;5032254;28;20025;-71
2022/05/06 00:39:14;;;;;;;9.23;4.40;;;10.20;99.90;;;;;;5032446;28;20030;-72
2022/05/06 00:41:41;;;;;;;6.43;3.53;;;10.20;99.90;;;;;;5033661;28;20033;-72
2022/05/06 00:44:08;;;;;;;6.85;3.53;;;10.20;99.90;;;;;;5032721;28;20026;-71
2022/05/06 00:46:37;;;;;;;7.97;3.97;;;10.10;99.90;;;;;;5032118;28;20076;-72
2022/05/06 00:49:06;;;;;;;19.02;3.95;;;10.10;99.90;;;;;;5032072;28;20022;-70
2022/05/06 00:51:31;;;;;;;8.80;3.38;;;10.10;99.90;;;;;;5031690;28;20028;-71
2022/05/06 00:53:57;;;;;;;6.50;3.17;;;10.00;99.90;;;;;;5032283;28;20021;-71
2022/05/06 00:56:26;;;;;;;9.18;3.95;;;10.00;99.90;;;;;;5032268;28;20022;-71
2022/05/06 00:58:53;;;;;;;7.78;4.22;;;10.00;99.90;;;;;;5031982;28;20033;-70
2022/05/06 01:01:19;;;;;;;6.85;3.35;;;9.80;99.90;;;;;;5031517;28;20147;-71
2022/05/06 01:03:45;;;;;;;11.48;4.05;;;9.90;99.90;;;;;;5038876;28;20386;-72
2022/05/06 01:06:13;;;;;;;7.63;3.80;;;9.90;99.90;;;;;;5032037;28;20054;-71
2022/05/06 01:08:40;;;;;;;9.93;3.67;;;9.90;99.90;;;;;;5031700;28;20040;-71
2022/05/06 01:11:07;;;;;;;6.53;3.85;;;9.90;99.90;;;;;;5031985;28;20014;-71
2022/05/06 01:13:45;;;;;;;7.70;4.47;;;9.90;99.90;;;;;;5032136;28;20030;-71
2022/05/06 01:16:14;;;;;;;8.52;3.80;;;9.80;99.90;;;;;;5032013;28;20116;-71
2022/05/06 01:18:40;;;;;;;14.65;3.53;;;9.80;99.90;;;;;;5032544;28;20041;-71
2022/05/06 01:21:06;;;;;;;11.73;4.30;;;9.70;99.90;;;;;;5038190;28;20386;-72
2022/05/06 01:23:32;;;;;;;8.32;3.58;;;9.70;99.90;;;;;;5032027;28;20018;-71
2022/05/06 01:25:58;;;;;;;6.88;4.10;;;9.70;99.90;;;;;;5031714;28;20125;-71
2022/05/06 01:28:26;;;;;;;4.55;3.17;;;9.60;99.90;;;;;;5038762;28;20103;-71
2022/05/06 01:30:58;;;;;;;10.27;3.83;;;9.60;99.90;;;;;;5030926;28;20412;-72
2022/05/06 01:33:26;;;;;;;9.48;3.13;;;9.60;99.90;;;;;;5030092;28;20450;-73
2022/05/06 01:35:57;;;;;;;7.97;3.00;;;9.60;99.90;;;;;;5032541;28;20026;-72
2022/05/06 01:38:58;;;;;;;11.57;3.35;;;9.50;99.90;;;;;;5035181;28;20474;-71
2022/05/06 01:41:26;;;;;;;10.65;4.00;;;9.50;99.90;;;;;;5006864;28;20054;-72
2022/05/06 01:44:04;;;;;;;7.80;3.45;;;9.50;99.90;;;;;;5033554;28;21043;-71
2022/05/06 01:46:30;;;;;;;6.55;3.03;;;9.60;99.90;;;;;;5035528;28;20052;-73
2022/05/06 01:48:57;;;;;;;6.97;3.47;;;9.50;99.90;;;;;;5035559;28;20053;-72
2022/05/06 01:51:24;;;;;;;10.10;3.85;;;9.50;99.90;;;;;;5034914;28;20053;-73
2022/05/06 01:53:50;;;;;;;12.38;3.63;;;9.50;99.90;;;;;;5034336;28;20112;-72
2022/05/06 01:56:20;;;;;;;7.35;3.80;;;9.50;99.90;;;;;;5035652;28;20022;-73
2022/05/06 01:58:46;;;;;;;10.32;4.25;;;9.50;99.90;;;;;;5035231;28;20030;-71
2022/05/06 02:01:12;;;;;;;6.50;3.65;;;9.40;99.90;;;;;;5035488;28;20026;-73
2022/05/06 02:06:22;;;;;;;10.10;4.45;;;9.30;99.90;;;;;;5035341;28;20041;-69
2022/05/06 02:08:48;;;;;;;4.95;3.15;;;9.40;99.90;;;;;;5034804;28;20037;-71
2022/05/06 02:11:14;;;;;;;7.75;3.58;;;9.40;99.90;;;;;;5035667;28;20036;-72
2022/05/06 02:13:40;;;;;;;9.38;4.13;;;9.40;99.90;;;;;;5035603;28;20022;-74
2022/05/06 02:16:06;;;;;;;14.05;3.50;;;9.30;99.90;;;;;;5035442;28;20068;-71
2022/05/06 02:18:32;;;;;;;5.35;3.08;;;9.30;99.90;;;;;;5034569;28;20025;-72
2022/05/06 02:20:58;;;;;;;5.28;3.30;;;9.30;99.90;;;;;;5033661;28;20025;-71
2022/05/06 02:23:24;;;;;;;8.32;3.97;;;9.30;99.90;;;;;;5035250;28;20018;-70
2022/05/06 02:25:50;;;;;;;6.38;3.85;;;9.20;99.90;;;;;;5034311;28;20098;-72
2022/05/06 02:28:16;;;;;;;6.22;3.50;;;9.20;99.90;;;;;;5035265;28;20021;-71
2022/05/06 02:33:27;;;;;;;8.35;4.18;;;9.20;99.90;;;;;;5034552;28;20386;-71
2022/05/06 02:35:54;;;;;;;7.82;3.72;;;9.20;99.90;;;;;;5034497;28;20034;-71
2022/05/06 02:38:21;;;;;;;8.32;3.65;;;9.20;99.90;;;;;;5034260;28;20018;-71
2022/05/06 02:40:49;;;;;;;6.10;3.03;;;9.10;99.90;;;;;;5034040;28;20045;-73
2022/05/06 02:43:17;;;;;;;6.63;3.67;;;9.10;99.90;;;;;;5034621;28;20437;-71
2022/05/06 02:45:43;;;;;;;10.57;4.53;;;9.10;99.90;;;;;;5034083;28;20044;-72
2022/05/06 02:48:08;;;;;;;9.13;4.47;;;9.00;99.90;;;;;;5034029;28;20044;-73
2022/05/06 02:50:34;;;;;;;7.82;3.33;;;9.00;99.90;;;;;;5034404;28;20022;-71
2022/05/06 02:53:01;;;;;;;5.72;3.42;;;9.00;99.90;;;;;;5033840;28;20477;-71
2022/05/06 02:55:32;;;;;;;9.45;4.18;;;8.90;99.90;;;;;;5033152;28;20037;-72
2022/05/06 02:57:58;;;;;;;9.57;3.75;;;8.90;99.90;;;;;;5033672;28;20021;-71
2022/05/06 03:00:24;;;;;;;14.68;3.88;;;8.90;99.90;;;;;;5032760;28;20032;-71
2022/05/06 03:02:50;;;;;;;8.50;3.25;;;8.80;99.90;;;;;;5034606;28;20096;-71
2022/05/06 03:05:17;;;;;;;5.03;3.22;;;8.80;99.90;;;;;;5033785;28;20084;-72
2022/05/06 03:07:43;;;;;;;8.25;3.65;;;8.80;99.90;;;;;;5032082;28;20029;-73
2022/05/06 03:10:10;;;;;;;7.95;4.93;;;8.80;99.90;;;;;;5034499;28;20068;-71
2022/05/06 03:12:37;;;;;;;5.03;3.35;;;8.80;99.90;;;;;;5033875;28;20045;-72
2022/05/06 03:15:05;;;;;;;8.13;3.97;;;8.70;99.90;;;;;;5033878;28;20043;-71
2022/05/06 03:17:31;;;;;;;5.35;3.28;;;8.70;99.90;;;;;;5033565;28;20028;-71
2022/05/06 03:19:57;;;;;;;7.40;3.90;;;8.70;99.90;;;;;;5033253;28;20026;-72
2022/05/06 03:22:23;;;;;;;7.72;3.95;;;8.70;99.90;;;;;;5033527;28;20045;-72
2022/05/06 03:24:49;;;;;;;7.53;4.43;;;8.60;99.90;;;;;;5033840;28;20036;-73
2022/05/06 03:30:00;;;;;;;10.13;4.45;;;8.60;99.90;;;;;;5033692;28;20068;-71
2022/05/06 03:32:27;;;;;;;7.53;4.18;;;8.60;99.90;;;;;;5033383;28;20047;-70
2022/05/06 03:34:53;;;;;;;5.75;2.58;;;8.60;99.90;;;;;;5033263;28;20386;-70
2022/05/06 03:37:19;;;;;;;6.45;3.15;;;8.60;99.90;;;;;;5033512;28;20034;-70
2022/05/06 03:39:45;;;;;;;7.50;3.72;;;8.60;99.90;;;;;;5033466;28;20018;-72
2022/05/06 03:42:11;;;;;;;19.95;3.47;;;8.60;99.90;;;;;;5033346;28;20389;-72
2022/05/06 03:44:37;;;;;;;7.47;3.97;;;8.50;99.90;;;;;;5032389;28;20101;-70
2022/05/06 03:47:03;;;;;;;5.18;3.05;;;8.50;99.90;;;;;;5032453;28;20072;-73
2022/05/06 03:49:28;;;;;;;13.40;4.32;;;8.50;99.90;;;;;;5033188;28;20057;-72
2022/05/06 03:51:54;;;;;;;10.07;4.13;;;8.40;99.90;;;;;;5033612;28;20022;-72
2022/05/06 03:54:19;;;;;;;11.05;4.05;;;8.50;99.90;;;;;;5032823;28;20108;-71
2022/05/06 03:56:45;;;;;;;12.80;4.25;;;8.40;99.90;;;;;;5033151;28;20051;-72
2022/05/06 03:59:11;;;;;;;8.32;4.28;;;8.30;99.90;;;;;;5032143;28;20026;-71
2022/05/06 04:01:40;;;;;;;6.75;3.05;;;8.40;99.90;;;;;;5032636;28;20026;-73
2022/05/06 04:04:06;;;;;;;13.50;4.22;;;8.30;99.90;;;;;;5033104;28;20032;-71
2022/05/06 04:06:33;;;;;;;10.40;4.05;;;8.30;99.90;;;;;;5032866;28;20041;-70
2022/05/06 04:08:59;;;;;;;9.77;4.47;;;8.30;99.90;;;;;;5032655;28;20022;-69
2022/05/06 04:11:25;;;;;;;11.95;5.38;;;8.30;99.90;;;;;;5032672;28;20085;-69
2022/05/06 04:13:51;;;;;;;14.13;4.88;;;8.30;99.90;;;;;;5031346;28;20045;-70
2022/05/06 04:16:18;;;;;;;14.30;4.53;;;8.30;99.90;;;;;;5033130;28;20530;-71
2022/05/06 04:18:44;;;;;;;6.40;3.30;;;8.30;99.90;;;;;;5033954;28;20045;-72
2022/05/06 04:23:54;;;;;;;8.15;4.18;;;8.30;99.90;;;;;;5033081;28;20617;-69
2022/05/06 04:26:20;;;;;;;8.15;4.05;;;8.30;99.90;;;;;;5033577;28;20053;-69
2022/05/06 04:28:46;;;;;;;10.20;4.20;;;8.40;99.90;;;;;;5032610;28;20030;-71
2022/05/06 04:31:12;;;;;;;6.82;3.95;;;8.40;99.90;;;;;;5033980;28;20044;-70
2022/05/06 04:33:39;;;;;;;6.85;3.08;;;8.40;99.90;;;;;;5038639;28;20442;-71
2022/05/06 04:36:06;;;;;;;9.38;4.00;;;8.40;99.90;;;;;;5032084;28;20026;-69
2022/05/06 04:38:32;;;;;;;9.82;4.05;;;8.40;99.90;;;;;;5033169;28;20025;-70
2022/05/06 04:40:58;;;;;;;12.68;4.22;;;8.50;99.90;;;;;;5030066;28;20036;-70
2022/05/06 04:43:26;;;;;;;7.35;3.85;;;8.50;99.90;;;;;;5032436;28;20083;-72
2022/05/06 04:45:53;;;;;;;7.50;4.35;;;8.60;99.90;;;;;;5032090;28;20060;-70
2022/05/06 04:48:19;;;;;;;5.95;3.47;;;8.60;99.90;;;;;;5031796;28;20033;-71
2022/05/06 04:50:46;;;;;;;10.63;4.00;;;8.70;99.90;;;;;;5033593;28;20776;-72
2022/05/06 04:53:13;;;;;;;7.63;3.72;;;8.70;99.90;;;;;;5033376;28;20041;-73
2022/05/06 04:55:47;;;;;;;13.88;5.28;;;8.70;99.90;;;;;;5031429;28;20032;-70
2022/05/06 04:58:14;;;;;;;9.43;3.30;;;8.80;99.90;;;;;;5034568;28;20029;-71
2022/05/06 05:00:41;;;;;;;8.23;3.80;;;8.90;99.90;;;;;;5030819;28;20615;-70
2022/05/06 05:03:07;;;;;;;13.02;4.75;;;8.90;99.90;;;;;;5030832;28;20076;-71
2022/05/06 05:05:33;;;;;;;6.05;3.97;;;9.00;99.90;;;;;;5032270;28;20033;-71
2022/05/06 05:07:59;;;;;;;13.25;4.38;;;9.10;99.90;;;;;;5032186;28;20447;-71
2022/05/06 05:10:24;;;;;;;6.15;4.07;;;9.10;99.90;;;;;;5031606;28;20037;-70
2022/05/06 05:12:50;;;;;;;17.25;4.38;;;9.20;99.90;;;;;;5045138;28;20037;-71
2022/05/06 05:15:17;;;;;;;9.13;3.72;;;9.20;99.90;;;;;;5045589;28;20103;-71
2022/05/06 05:17:47;;;;;;;8.88;3.78;;;9.30;99.90;;;;;;5039473;28;20021;-71
2022/05/06 05:20:14;;;;;;;13.85;5.53;;;9.40;99.90;;;;;;5037098;28;20444;-70
2022/05/06 05:22:41;;;;;;;7.95;4.38;;;9.50;99.90;;;;;;5038313;28;20052;-70
2022/05/06 05:25:08;;;;;;;8.68;4.32;;;9.50;99.90;;;;;;5037006;28;20034;-72
2022/05/06 05:27:36;;;;;;;9.60;4.25;;;9.60;99.90;;;;;;5038349;28;20108;-70
2022/05/06 05:30:06;;;;;;;9.88;4.10;;;9.70;99.90;;;;;;5035385;28;20078;-72
2022/05/06 05:32:32;;;;;;;8.55;3.70;;;9.70;99.90;;;;;;5038623;28;20056;-70
2022/05/06 05:34:58;;;;;;;11.13;4.78;;;9.70;99.90;;;;;;5042840;28;20056;-69
2022/05/06 05:37:27;;;;;;;12.98;4.82;;;9.80;99.90;;;;;;5038590;28;20026;-72
2022/05/06 05:39:53;;;;;;;24.88;5.53;;;9.80;99.90;;;;;;5038427;28;20021;-72
2022/05/06 05:42:22;;;;;;;11.00;4.55;;;9.90;99.90;;;;;;5037958;28;20030;-72
2022/05/06 05:50:18;;;;;;;10.48;4.60;;;10.00;99.90;;;;;;5039543;28;20056;-71
2022/05/06 05:52:46;;;;;;;8.07;4.43;;;10.10;99.90;;;;;;5038044;28;20093;-72
2022/05/06 05:55:12;;;;;;;6.68;3.60;;;10.20;99.90;;;;;;5038644;28;20041;-71
2022/05/06 05:57:38;;;;;;;9.15;4.30;;;10.20;99.90;;;;;;5038053;28;20021;-70
2022/05/06 06:00:05;;;;;;;17.73;5.10;;;10.30;99.90;;;;;;5038143;28;20041;-71
2022/05/06 06:02:31;;;;;;;11.05;5.13;;;10.40;99.90;;;;;;5044269;28;20036;-71
2022/05/06 06:04:57;;;;;;;15.90;5.18;;;10.50;99.90;;;;;;5037446;28;20064;-70
2022/05/06 06:07:23;;;;;;;18.30;6.32;;;10.50;99.90;;;;;;5037725;28;20029;-71
2022/05/06 06:09:48;;;;;;;8.15;4.20;;;10.70;99.90;;;;;;5037479;28;20014;-71
2022/05/06 06:12:14;;;;;;;11.25;5.88;;;10.60;99.90;;;;;;5038503;28;20042;-70
2022/05/06 06:14:40;;;;;;;11.93;5.82;;;10.70;99.90;;;;;;5038008;28;20037;-72
2022/05/06 06:17:06;;;;;;;10.65;5.57;;;10.80;99.90;;;;;;5038424;28;20029;-70
2022/05/06 06:19:32;;;;;;;14.77;4.93;;;10.90;99.90;;;;;;5036629;28;20083;-71
2022/05/06 06:21:57;;;;;;;13.50;6.10;;;11.00;99.90;;;;;;5035540;28;20471;-71
2022/05/06 06:24:23;;;;;;;11.82;5.72;;;11.10;99.90;;;;;;5035678;28;20017;-70
2022/05/06 06:26:49;;;;;;;12.48;5.97;;;11.10;99.90;;;;;;5034650;28;20042;-69
2022/05/06 06:29:14;;;;;;;9.68;5.50;;;11.20;99.90;;;;;;5034891;28;20037;-70
2022/05/06 06:31:40;;;;;;;9.88;5.35;;;11.30;99.90;;;;;;5034146;28;20018;-70
2022/05/06 06:34:06;;;;;;;13.63;5.75;;;11.30;99.90;;;;;;5034738;28;20029;-70
2022/05/06 06:36:32;;;;;;;12.13;4.65;;;11.40;99.90;;;;;;5034847;28;20052;-70
2022/05/06 06:38:58;;;;;;;11.43;4.82;;;11.60;99.90;;;;;;5034839;28;20034;-69
2022/05/06 06:41:27;;;;;;;14.23;5.80;;;11.70;99.90;;;;;;5035694;28;20054;-72
2022/05/06 06:43:55;;;;;;;15.07;5.68;;;11.80;99.90;;;;;;5033703;28;20022;-71
2022/05/06 06:46:20;;;;;;;12.65;5.13;;;11.90;99.90;;;;;;5032242;28;20480;-72
2022/05/06 06:48:47;;;;;;;11.90;5.22;;;12.00;99.90;;;;;;5032530;28;20029;-73
2022/05/06 06:51:14;;;;;;;10.10;4.78;;;12.10;99.90;;;;;;5033155;28;20065;-73
2022/05/06 06:53:40;;;;;;;18.02;5.60;;;12.20;99.90;;;;;;5035203;28;20052;-72
2022/05/06 06:56:05;;;;;;;9.85;4.72;;;12.40;99.90;;;;;;5034537;28;20034;-71
2022/05/06 06:58:31;;;;;;;9.95;4.68;;;12.50;99.90;;;;;;5033369;28;20037;-70
2022/05/06 07:00:57;;;;;;;10.40;5.07;;;12.50;99.90;;;;;;5033483;28;20076;-70
2022/05/06 07:03:22;;;;;;;9.65;5.03;;;12.60;99.90;;;;;;5033733;28;20387;-71
2022/05/06 07:14:02;;;;;;;7.45;4.10;;;13.00;99.90;;;;;;5030974;28;20036;-70
2022/05/06 07:16:27;;;;;;;11.00;4.95;;;13.20;99.90;;;;;;5030575;28;20049;-70
2022/05/06 07:18:53;;;;;;;14.25;5.32;;;13.30;99.90;;;;;;5029092;28;20029;-72
2022/05/06 07:21:19;;;;;;;9.52;4.20;;;13.40;99.90;;;;;;5034582;28;20018;-71
2022/05/06 07:23:45;;;;;;;13.13;5.05;;;13.40;99.90;;;;;;5033027;28;20048;-69
2022/05/06 07:26:13;;;;;;;9.35;4.40;;;13.50;99.90;;;;;;5034277;28;20038;-70
2022/05/06 07:28:40;;;;;;;14.65;3.80;;;13.60;99.90;;;;;;5033362;28;20039;-70
2022/05/06 07:31:06;;;;;;;12.15;4.53;;;13.70;99.90;;;;;;5035186;28;20056;-69
2022/05/06 07:33:32;;;;;;;13.10;4.60;;;13.90;99.90;;;;;;5034161;28;20056;-69
2022/05/06 07:35:58;;;;;;;7.80;4.43;;;14.00;99.90;;;;;;5031901;28;20121;-69
2022/05/06 07:38:23;;;;;;;7.80;4.50;;;14.20;99.90;;;;;;5032720;28;20018;-72
2022/05/06 07:40:49;;;;;;;13.23;5.07;;;14.30;99.90;;;;;;5031984;28;20018;-71
2022/05/06 07:43:15;;;;;;;9.45;4.75;;;14.40;99.90;;;;;;5032761;28;20057;-69
2022/05/06 07:45:41;;;;;;;9.48;4.22;;;14.50;99.90;;;;;;5031579;28;20049;-71
2022/05/06 07:48:08;;;;;;;9.90;4.45;;;14.60;99.90;;;;;;5033815;28;20128;-70
2022/05/06 07:50:37;;;;;;;7.32;3.75;;;14.60;99.90;;;;;;5033461;28;20025;-70
2022/05/06 07:53:02;;;;;;;9.15;4.40;;;14.80;99.90;;;;;;5031271;28;20030;-70
2022/05/06 07:55:28;;;;;;;9.07;3.63;;;14.90;99.90;;;;;;5032943;28;20025;-70
2022/05/06 07:57:54;;;;;;;7.30;4.18;;;15.00;99.90;;;;;;5031196;28;20459;-73
2022/05/06 08:00:24;;;;;;;12.45;4.45;;;15.10;99.90;;;;;;5030651;28;20029;-73
2022/05/06 08:05:34;;;;;;;8.13;4.90;;;15.30;99.90;;;;;;5033409;28;20147;-69
2022/05/06 08:07:59;;;;;;;8.20;4.22;;;15.40;99.90;;;;;;5032681;28;20026;-71
2022/05/06 08:10:26;;;;;;;15.18;4.82;;;15.40;99.90;;;;;;5033441;28;20535;-70
2022/05/06 08:12:51;;;;;;;11.93;4.72;;;15.50;99.90;;;;;;5030903;28;20039;-69
2022/05/06 08:15:18;;;;;;;14.25;4.90;;;15.60;99.90;;;;;;5032765;28;20034;-70
2022/05/06 08:17:45;;;;;;;9.45;4.00;;;15.60;99.90;;;;;;5032785;28;20044;-72
2022/05/06 08:20:12;;;;;;;10.65;4.78;;;15.70;99.90;;;;;;5033222;28;20057;-74
2022/05/06 08:22:45;;;;;;;16.35;5.28;;;15.80;99.90;;;;;;5031533;28;20049;-72
2022/05/06 08:25:12;;;;;;;19.65;6.00;;;15.90;99.90;;;;;;5033261;28;20103;-75
2022/05/06 08:27:38;;;;;;;9.68;4.07;;;15.90;99.90;;;;;;5031452;28;20101;-75
2022/05/06 08:30:05;;;;;;;14.75;4.38;;;16.00;99.90;;;;;;5032954;28;20074;-72
2022/05/06 08:32:30;;;;;;;11.88;5.10;;;16.10;99.90;;;;;;5032109;28;20026;-73
2022/05/06 08:34:56;;;;;;;11.60;5.05;;;16.20;99.90;;;;;;5032710;28;20112;-70
2022/05/06 08:37:24;;;;;;;22.30;4.43;;;16.40;99.90;;;;;;5032375;28;20077;-73
2022/05/06 08:39:49;;;;;;;11.20;5.63;;;16.60;99.90;;;;;;5032651;28;20075;-72
2022/05/06 08:42:21;;;;;;;7.68;4.30;;;16.70;99.90;;;;;;5033191;28;20473;-72
2022/05/06 08:53:05;;;;;;;10.63;4.97;;;17.20;99.90;;;;;;5032160;28;20048;-70
2022/05/06 08:55:34;;;;;;;10.05;4.55;;;17.30;99.90;;;;;;5032920;28;20040;-72
2022/05/06 08:58:00;;;;;;;10.43;3.95;;;17.40;99.90;;;;;;5032307;28;20026;-71
2022/05/06 09:00:27;;;;;;;9.35;4.40;;;17.40;99.90;;;;;;5032832;28;20022;-70
2022/05/06 09:02:53;;;;;;;9.10;4.43;;;17.50;99.90;;;;;;5030049;28;20021;-70
2022/05/06 09:05:20;;;;;;;8.15;4.00;;;17.50;99.90;;;;;;5032835;28;20081;-73
2022/05/06 09:07:57;;;;;;;13.23;3.95;;;17.60;99.90;;;;;;5032803;28;20028;-69
2022/05/06 09:10:23;;;;;;;10.13;3.83;;;17.60;99.90;;;;;;5031509;28;20021;-71
2022/05/06 09:12:53;;;;;;;7.43;3.60;;;17.80;99.90;;;;;;5033260;28;20085;-72
2022/05/06 09:18:07;;;;;;;7.28;3.63;;;17.80;99.90;;;;;;5034814;28;20060;-71
2022/05/06 09:20:34;;;;;;;9.43;4.00;;;17.90;99.90;;;;;;5031771;28;20033;-71
2022/05/06 09:23:20;;;;;;;4.72;2.83;;;18.00;99.90;;;;;;5031245;28;20045;-71
2022/05/06 09:25:49;;;;;;;8.55;3.65;;;18.10;99.90;;;;;;5032770;28;20044;-70
2022/05/06 09:28:28;;;;;;;11.90;3.85;;;18.20;99.90;;;;;;5031854;28;20030;-70
2022/05/06 09:31:07;;;;;;;7.50;3.42;;;18.20;99.90;;;;;;5031194;28;20059;-70
2022/05/06 09:33:35;;;;;;;7.80;3.08;;;18.30;99.90;;;;;;5029835;28;20069;-69
2022/05/06 09:36:25;;;;;;;7.72;3.55;;;18.40;99.90;;;;;;5032365;28;20046;-68
2022/05/06 09:39:05;;;;;;;6.78;4.00;;;18.50;99.90;;;;;;5031073;28;20029;-73
2022/05/06 09:41:32;;;;;;;8.32;3.50;;;18.50;99.90;;;;;;5047695;28;20052;-71
2022/05/06 09:44:02;;;;;;;12.90;3.45;;;18.60;99.90;;;;;;5031160;28;20044;-68
2022/05/06 09:46:28;;;;;;;6.85;3.70;;;18.70;99.90;;;;;;5031743;28;20048;-68
2022/05/06 09:48:58;;;;;;;7.78;3.45;;;18.80;99.90;;;;;;5029580;28;20014;-69
2022/05/06 09:51:33;;;;;;;5.35;3.30;;;18.80;99.90;;;;;;5030696;28;20034;-70
2022/05/06 09:53:59;;;;;;;13.93;3.63;;;19.00;99.90;;;;;;5032910;28;20095;-72
2022/05/06 09:56:28;;;;;;;6.30;3.20;;;19.00;99.90;;;;;;5031008;28;20025;-72
2022/05/06 09:58:55;;;;;;;8.75;3.63;;;19.10;99.90;;;;;;5033253;28;20032;-70
2022/05/06 10:01:21;;;;;;;6.78;2.75;;;19.20;99.90;;;;;;5034099;28;20018;-72
2022/05/06 10:03:47;;;;;;;6.28;3.20;;;19.30;99.90;;;;;;5034109;28;20687;-73
2022/05/06 10:06:14;;;;;;;8.38;3.65;;;19.10;99.90;;;;;;5033650;28;20038;-73
2022/05/06 10:08:51;;;;;;;6.22;3.40;;;19.10;99.90;;;;;;5033867;28;20063;-73
2022/05/06 10:11:24;;;;;;;6.38;2.85;;;19.00;99.90;;;;;;5033799;28;20045;-72
2022/05/06 10:13:52;;;;;;;3.72;1.77;;;19.00;99.90;;;;;;5033348;28;20048;-72
2022/05/06 10:16:18;;;;;;;4.85;2.17;;;19.30;99.90;;;;;;5033660;28;20053;-71
2022/05/06 10:18:45;;;;;;;9.50;2.90;;;19.50;99.90;;;;;;5034390;28;20097;-74
2022/05/06 10:21:13;;;;;;;10.02;3.80;;;19.70;99.90;;;;;;5034387;28;20037;-74
2022/05/06 10:23:44;;;;;;;6.35;3.10;;;19.70;99.90;;;;;;5034055;28;20022;-73
2022/05/06 10:26:35;;;;;;;4.60;2.65;;;19.90;99.90;;;;;;5032890;28;20077;-70
2022/05/06 10:34:35;;;;;;;8.27;2.63;;;19.30;99.90;;;;;;5033133;28;20092;-69
2022/05/06 10:37:13;;;;;;;8.20;2.83;;;19.30;99.90;;;;;;5033439;28;20030;-71
2022/05/06 10:39:39;;;;;;;6.18;2.58;;;19.20;99.90;;;;;;5033436;28;20043;-70
2022/05/06 10:42:09;;;;;;;5.85;2.88;;;19.10;99.90;;;;;;5032715;28;20085;-71
2022/05/06 10:44:36;;;;;;;9.55;2.88;;;19.00;99.90;;;;;;5034922;28;20041;-73
2022/05/06 10:47:23;;;;;;;5.22;2.80;;;19.00;99.90;;;;;;5032425;28;20053;-69
2022/05/06 10:49:50;;;;;;;5.53;2.80;;;19.00;99.90;;;;;;5020987;28;20100;-69
2022/05/06 10:52:15;;;;;;;6.28;2.85;;;19.20;99.90;;;;;;5033095;28;20065;-70
2022/05/06 10:54:49;;;;;;;8.77;2.67;;;19.20;99.90;;;;;;5033157;28;20034;-70
2022/05/06 10:57:19;;;;;;;7.68;1.75;;;19.20;99.90;;;;;;5034089;28;20030;-71
2022/05/06 10:59:58;;;;;;;3.97;1.67;;;19.20;99.90;;;;;;5033250;28;20018;-72
2022/05/06 11:02:28;;;;;;;6.80;2.83;;;19.20;99.90;;;;;;5031061;28;20140;-70
2022/05/06 11:04:56;;;;;;;5.60;3.30;;;19.20;99.90;;;;;;5033100;28;20021;-71
2022/05/06 11:07:22;;;;;;;9.52;2.70;;;19.40;99.90;;;;;;5033983;28;20033;-70
2022/05/06 11:09:51;;;;;;;8.73;2.88;;;19.70;99.90;;;;;;5038077;28;20053;-71
2022/05/06 11:12:38;;;;;;;6.18;3.03;;;20.00;99.90;;;;;;5033020;28;20064;-73
2022/05/06 11:15:06;;;;;;;9.43;2.90;;;20.50;99.90;;;;;;5031909;28;20038;-72
2022/05/06 11:17:33;;;;;;;3.47;2.35;;;20.90;99.90;;;;;;5032615;28;20032;-70
2022/05/06 11:20:23;;;;;;;9.18;2.83;;;21.20;99.90;;;;;;5032986;28;20056;-71
2022/05/06 11:23:02;;;;;;;4.82;2.55;;;21.10;99.90;;;;;;5031352;28;20080;-72
2022/05/06 11:25:36;;;;;;;6.05;2.78;;;20.90;99.90;;;;;;5033017;28;20125;-69
2022/05/06 11:28:15;;;;;;;7.47;2.97;;;20.70;99.90;;;;;;5031811;28;20417;-70
2022/05/06 11:30:45;;;;;;;3.72;2.38;;;20.50;99.90;;;;;;5032443;28;20500;-70
2022/05/06 11:33:28;;;;;;;3.50;2.10;;;20.40;99.90;;;;;;5032719;28;20037;-71
2022/05/06 11:36:01;;;;;;;7.22;2.63;;;20.20;99.90;;;;;;5033143;28;20386;-69
2022/05/06 11:38:35;;;;;;;8.82;2.90;;;20.10;99.90;;;;;;5032853;28;20029;-70
2022/05/06 11:41:14;;;;;;;6.40;2.72;;;20.10;99.90;;;;;;5029601;28;20022;-72
2022/05/06 11:43:46;;;;;;;10.70;2.15;;;20.20;99.90;;;;;;5033370;28;20025;-70
2022/05/06 11:49:04;;;;;;;3.92;2.45;;;20.80;99.90;;;;;;5032204;28;20153;-70
2022/05/06 11:51:45;;;;;;;4.07;2.13;;;21.30;99.90;;;;;;5031597;28;20381;-79
2022/05/06 11:54:14;;;;;;;5.35;2.20;;;21.70;99.90;;;;;;5033728;28;20094;-72
2022/05/06 11:56:41;;;;;;;11.73;2.85;;;22.00;99.90;;;;;;5032314;28;20047;-70
2022/05/06 11:59:07;;;;;;;4.93;2.28;;;22.30;99.90;;;;;;5031722;28;20026;-71
2022/05/06 12:01:38;;;;;;;6.88;2.35;;;22.20;99.90;;;;;;5032171;28;20033;-71
2022/05/06 12:04:14;;;;;;;5.00;2.42;;;22.00;99.90;;;;;;5031386;28;20180;-72
2022/05/06 12:06:51;;;;;;;5.50;2.67;;;22.00;99.90;;;;;;5032390;28;20038;-70
2022/05/06 12:09:18;;;;;;;7.53;2.95;;;21.90;99.90;;;;;;5032712;28;20025;-72
2022/05/06 12:11:45;;;;;;;6.15;2.95;;;21.80;99.90;;;;;;5031883;28;20021;-73
2022/05/06 12:14:19;;;;;;;7.25;2.42;;;22.10;99.90;;;;;;5032289;28;20068;-71
2022/05/06 12:16:55;;;;;;;4.60;2.40;;;22.20;99.90;;;;;;5030907;28;20040;-74
2022/05/06 12:19:36;;;;;;;7.03;2.88;;;22.50;99.90;;;;;;5032347;28;20033;-73
2022/05/06 12:22:06;;;;;;;9.35;2.85;;;22.70;99.90;;;;;;5031075;28;20752;-73
2022/05/06 12:24:55;;;;;;;17.73;2.38;;;22.70;99.90;;;;;;5031020;28;20485;-72
2022/05/06 12:27:29;;;;;;;3.72;1.98;;;23.10;99.90;;;;;;5032467;28;20044;-69
2022/05/06 12:29:55;;;;;;;;;;;23.40;99.90;;;;;;5032288;28;20167;-71
2022/05/06 12:32:25;;;;;;;5.53;2.38;;;23.40;99.90;;;;;;5031205;28;19905;-78
2022/05/06 12:35:10;;;;;;;5.68;2.35;;;23.40;99.90;;;;;;5038892;28;20085;-71
2022/05/06 12:37:51;;;;;;;3.28;1.77;;;23.60;99.90;;;;;;5033740;28;20029;-75
2022/05/06 12:40:17;;;;;;;2.25;1.33;;;23.90;99.90;;;;;;5029535;28;20085;-71
2022/05/06 12:42:43;;;;;;;2.38;1.10;;;24.30;99.90;;;;;;5030882;28;20025;-73
2022/05/06 12:45:12;;;;;;;3.00;1.40;;;24.40;99.90;;;;;;5031552;28;20355;-73
2022/05/06 12:50:26;;;;;;;4.10;1.85;;;25.00;99.90;;;;;;5021242;28;20117;-69
2022/05/06 12:52:51;;;;;;;3.60;1.75;;;25.00;99.90;;;;;;5031636;28;20018;-71
2022/05/06 12:55:17;;;;;;;5.93;2.22;;;24.90;99.90;;;;;;5030239;28;20034;-72
2022/05/06 12:57:43;;;;;;;6.55;2.45;;;24.90;99.90;;;;;;5032154;28;20067;-69
2022/05/06 13:00:11;;;;;;;5.65;2.20;;;24.60;99.90;;;;;;5031342;28;20988;-70
2022/05/06 13:02:36;;;;;;;6.97;2.60;;;24.20;99.90;;;;;;5031487;28;20026;-73
2022/05/06 13:05:05;;;;;;;3.65;2.35;;;23.90;99.50;;;;;;5031236;28;20056;-73
2022/05/06 13:07:31;;;;;;;5.75;2.33;;;23.50;99.90;;;;;;5029533;28;20105;-73
2022/05/06 13:09:56;;;;;;;7.53;2.58;;;23.50;99.90;;;;;;5032011;28;20053;-72
2022/05/06 13:12:22;;;;;;;16.98;2.67;;;23.60;99.90;;;;;;5031031;28;20030;-72
2022/05/06 13:14:48;;;;;;;3.40;1.38;;;24.00;99.90;;;;;;5031275;28;20022;-72
2022/05/06 13:17:13;;;;;;;5.82;2.03;;;24.30;99.90;;;;;;5031998;28;20048;-71
2022/05/06 13:19:39;;;;;;;8.65;2.78;;;24.20;99.90;;;;;;5031416;28;20075;-71
2022/05/06 13:22:04;;;;;;;3.55;2.00;;;24.00;99.90;;;;;;5030698;28;20029;-72
2022/05/06 13:24:30;;;;;;;3.88;2.30;;;24.10;98.40;;;;;;5031550;28;20032;-73
2022/05/06 13:26:55;;;;;;;3.05;1.90;;;23.90;99.60;;;;;;5029622;28;20040;-73
2022/05/06 13:29:21;;;;;;;2.83;1.98;;;23.80;99.80;;;;;;5030943;28;20105;-72
2022/05/06 13:31:47;;;;;;;2.78;1.80;;;23.70;99.80;;;;;;5030698;28;20120;-70
2022/05/06 13:34:13;;;;;;;3.30;1.90;;;23.50;98.70;;;;;;5035318;28;20021;-74
2022/05/06 13:36:38;;;;;;;3.83;2.33;;;23.60;98.40;;;;;;5035285;28;20041;-70
2022/05/06 13:39:04;;;;;;;3.97;2.17;;;23.90;98.40;;;;;;5035566;28;20076;-76
2022/05/06 13:41:30;;;;;;;4.93;2.17;;;24.10;99.10;;;;;;5033283;28;20143;-73